Time;durP1;ratioP1;P1;durP2;ratioP2;P2;SDS_P1;SDS_P2;PMS_P1;PMS_P2;Temp;Humidity;BMP_temperature;BMP_pressure;BME280_temperature;BME280_humidity;BME280_pressure;Samples;Min_cycle;Max_cycle;Signal;HPM_P1;HPM_P2
2021/11/12 00:14:48;;;;;;;29.40;15.65;;;7.30;99.90;;;;;;5033575;28;20171;-78
2021/11/12 00:17:19;;;;;;;39.53;16.58;;;7.10;99.90;;;;;;5033415;28;20262;-81
2021/11/12 00:19:45;;;;;;;34.67;17.63;;;7.10;99.90;;;;;;5033313;28;20167;-78
2021/11/12 00:22:12;;;;;;;34.72;16.67;;;7.10;99.90;;;;;;5032237;28;20167;-78
2021/11/12 00:24:38;;;;;;;43.65;16.85;;;7.20;99.90;;;;;;5033656;28;20259;-79
2021/11/12 00:27:06;;;;;;;44.13;17.50;;;7.20;99.90;;;;;;5033171;28;20164;-78
2021/11/12 00:30:01;;;;;;;41.58;17.52;;;7.10;99.90;;;;;;5033144;28;20298;-79
2021/11/12 00:32:25;;;;;;;36.90;16.15;;;7.10;99.90;;;;;;5033011;28;20223;-79
2021/11/12 00:40:01;;;;;;;38.70;15.52;;;6.70;99.90;;;;;;5033467;28;20187;-79
2021/11/12 00:42:42;;;;;;;36.65;17.35;;;6.80;99.90;;;;;;5033128;28;20175;-79
2021/11/12 00:45:09;;;;;;;36.65;15.70;;;6.80;99.90;;;;;;5032804;28;20171;-79
2021/11/12 00:55:22;;;;;;;41.58;16.98;;;6.40;99.90;;;;;;5032638;28;20179;-78
2021/11/12 00:57:49;;;;;;;39.22;18.52;;;6.50;99.90;;;;;;5032607;28;20199;-79
2021/11/12 01:00:16;;;;;;;39.58;16.67;;;6.50;99.90;;;;;;5033171;28;20195;-79
2021/11/12 01:02:42;;;;;;;31.60;16.63;;;6.60;99.90;;;;;;5031214;28;20263;-78
2021/11/12 01:05:09;;;;;;;47.95;18.25;;;6.50;99.90;;;;;;5032181;28;20176;-78
2021/11/12 01:07:36;;;;;;;34.83;17.17;;;6.50;99.90;;;;;;5032540;28;20642;-78
2021/11/12 01:10:04;;;;;;;46.47;18.42;;;6.60;99.90;;;;;;5032651;28;20744;-78
2021/11/12 01:12:30;;;;;;;30.77;17.48;;;6.60;99.90;;;;;;5032750;28;20671;-79
2021/11/12 01:14:56;;;;;;;35.30;17.73;;;6.60;99.90;;;;;;5032087;28;20255;-78
2021/11/12 01:17:23;;;;;;;35.78;18.20;;;6.50;99.90;;;;;;5032126;28;20199;-78
2021/11/12 01:19:49;;;;;;;39.83;17.40;;;6.40;99.90;;;;;;5032359;28;20180;-79
2021/11/12 01:22:15;;;;;;;40.63;18.15;;;6.50;99.90;;;;;;5032487;28;20892;-79
2021/11/12 01:24:42;;;;;;;37.88;18.08;;;6.40;99.90;;;;;;5032277;28;20647;-78
2021/11/12 01:27:08;;;;;;;34.63;17.50;;;6.50;99.90;;;;;;5032655;28;20234;-78
2021/11/12 01:29:35;;;;;;;32.90;16.30;;;6.50;99.90;;;;;;5032185;28;20243;-78
2021/11/12 01:32:21;;;;;;;31.33;17.25;;;6.40;99.90;;;;;;5032170;28;20172;-78
2021/11/12 01:34:50;;;;;;;41.00;18.83;;;6.30;99.90;;;;;;5035479;28;20598;-78
2021/11/12 01:37:17;;;;;;;29.48;15.65;;;6.30;99.90;;;;;;5036052;28;20191;-77
2021/11/12 01:39:43;;;;;;;35.88;18.40;;;6.30;99.90;;;;;;5036002;28;20602;-78
2021/11/12 01:42:09;;;;;;;38.22;18.77;;;6.30;99.90;;;;;;5035709;28;20195;-79
2021/11/12 01:44:46;;;;;;;32.33;18.27;;;6.40;99.90;;;;;;5035905;28;20170;-80
2021/11/12 01:49:54;;;;;;;34.03;18.00;;;6.50;99.90;;;;;;5035962;28;20675;-79
2021/11/12 01:52:31;;;;;;;47.50;19.73;;;6.60;99.90;;;;;;5035827;28;20164;-78
2021/11/12 01:55:06;;;;;;;40.72;19.67;;;6.70;99.90;;;;;;5034883;28;20199;-79
2021/11/12 02:00:01;;;;;;;43.28;20.23;;;6.50;99.90;;;;;;5036423;28;20635;-78
2021/11/12 02:02:27;;;;;;;33.83;18.90;;;6.40;99.90;;;;;;5036120;28;20254;-79
2021/11/12 02:04:53;;;;;;;37.58;18.52;;;6.60;99.90;;;;;;5035626;28;20648;-79
2021/11/12 02:07:19;;;;;;;35.30;18.52;;;6.50;99.90;;;;;;5035671;28;20187;-82
2021/11/12 02:09:46;;;;;;;40.33;20.58;;;6.40;99.90;;;;;;5035632;28;20168;-79
2021/11/12 02:14:43;;;;;;;38.38;18.80;;;6.20;99.90;;;;;;5036166;28;20168;-79
2021/11/12 02:17:15;;;;;;;38.15;19.08;;;6.20;99.90;;;;;;5035700;28;20257;-85
2021/11/12 02:20:33;;;;;;;37.80;20.13;;;6.20;99.90;;;;;;5035637;28;20186;-79
2021/11/12 02:22:33;;;;;;;37.55;19.92;;;6.30;99.90;;;;;;5024917;28;20179;-78
2021/11/12 02:25:13;;;;;;;44.28;19.63;;;6.20;99.90;;;;;;5035228;28;20176;-79
2021/11/12 02:27:49;;;;;;;35.92;19.50;;;6.30;99.90;;;;;;5035586;28;20160;-78
2021/11/12 02:30:32;;;;;;;31.63;18.67;;;6.10;99.90;;;;;;5035270;28;20188;-78
2021/11/12 02:32:59;;;;;;;40.40;18.10;;;6.10;99.90;;;;;;5035277;28;20710;-78
2021/11/12 02:35:26;;;;;;;36.60;18.77;;;6.00;99.90;;;;;;5035095;28;20176;-89
2021/11/12 02:37:52;;;;;;;38.30;18.85;;;6.00;99.90;;;;;;5035391;28;20196;-79
2021/11/12 02:40:18;;;;;;;38.13;19.83;;;6.00;99.90;;;;;;5035117;28;20226;-78
2021/11/12 02:42:44;;;;;;;39.00;19.38;;;6.10;99.90;;;;;;5035171;28;20168;-78
2021/11/12 02:45:09;;;;;;;38.92;20.65;;;6.20;99.90;;;;;;5033806;28;20321;-79
2021/11/12 02:47:35;;;;;;;34.88;18.98;;;6.10;99.90;;;;;;5035073;28;20171;-78
2021/11/12 02:50:00;;;;;;;39.17;20.05;;;6.00;99.90;;;;;;5035041;28;20202;-78
2021/11/12 02:52:26;;;;;;;37.05;20.35;;;6.00;99.90;;;;;;5034814;28;20210;-79
2021/11/12 02:54:52;;;;;;;38.05;19.33;;;6.00;99.90;;;;;;5034991;28;20250;-78
2021/11/12 02:57:20;;;;;;;35.63;18.30;;;6.10;99.90;;;;;;5034674;28;20258;-78
2021/11/12 02:59:47;;;;;;;37.03;18.05;;;6.10;99.90;;;;;;5033943;28;20172;-79
2021/11/12 03:02:14;;;;;;;34.13;18.52;;;6.10;99.90;;;;;;5034945;28;20156;-79
2021/11/12 03:04:40;;;;;;;33.13;17.33;;;6.00;99.90;;;;;;5034863;28;20259;-82
2021/11/12 03:07:06;;;;;;;33.80;16.90;;;5.90;99.90;;;;;;5034233;28;20172;-78
2021/11/12 03:09:33;;;;;;;33.55;17.88;;;5.80;99.90;;;;;;5034552;28;20171;-79
2021/11/12 03:12:00;;;;;;;34.80;18.48;;;5.80;99.90;;;;;;5034625;28;20168;-78
2021/11/12 03:14:26;;;;;;;27.23;16.58;;;6.10;99.90;;;;;;5034667;28;20179;-78
2021/11/12 03:16:53;;;;;;;39.28;20.27;;;6.00;99.90;;;;;;5034403;28;20200;-78
2021/11/12 03:19:20;;;;;;;39.50;19.60;;;5.80;99.90;;;;;;5034362;28;20274;-78
2021/11/12 03:21:46;;;;;;;35.65;18.52;;;5.70;99.90;;;;;;5034179;28;20176;-79
2021/11/12 03:24:23;;;;;;;33.90;17.98;;;5.50;99.90;;;;;;5033180;28;20322;-78
2021/11/12 03:27:06;;;;;;;41.58;20.30;;;5.50;99.90;;;;;;5034338;28;20164;-78
2021/11/12 04:02:48;;;;;;;34.60;19.63;;;6.70;99.90;;;;;;5033543;28;20259;-90
2021/11/12 04:05:03;;;;;;;39.42;19.92;;;6.10;99.90;;;;;;5028014;28;20282;-78
2021/11/12 05:12:59;;;;;;;43.45;21.15;;;6.40;99.90;;;;;;5032598;28;20595;-78
2021/11/12 05:56:31;;;;;;;44.67;22.77;;;6.10;99.90;;;;;;5032350;28;20179;-78
2021/11/12 05:58:56;;;;;;;43.42;21.73;;;6.10;99.90;;;;;;5032237;28;20168;-78
2021/11/12 06:01:22;;;;;;;41.15;22.13;;;6.00;99.90;;;;;;5031244;28;20187;-78
2021/11/12 06:03:48;;;;;;;41.78;20.63;;;6.00;99.90;;;;;;5031968;28;20624;-79
2021/11/12 06:06:13;;;;;;;34.97;19.75;;;6.00;99.90;;;;;;5031850;28;20187;-78
2021/11/12 06:08:39;;;;;;;45.40;22.38;;;6.10;99.90;;;;;;5031649;28;20171;-78
2021/11/12 06:11:05;;;;;;;38.15;21.00;;;6.00;99.90;;;;;;5031751;28;20191;-78
2021/11/12 06:13:30;;;;;;;37.70;21.08;;;6.00;99.90;;;;;;5031640;28;20170;-78
2021/11/12 06:15:56;;;;;;;41.03;20.73;;;6.30;99.90;;;;;;5031706;28;20174;-78
2021/11/12 06:18:22;;;;;;;46.33;22.17;;;6.40;99.90;;;;;;5031261;28;20215;-79
2021/11/12 06:20:48;;;;;;;36.78;20.83;;;6.30;99.90;;;;;;5034673;28;20232;-79
2021/11/12 06:23:13;;;;;;;39.17;20.67;;;6.20;99.90;;;;;;5035249;28;20176;-78
2021/11/12 06:25:39;;;;;;;45.20;23.10;;;6.30;99.90;;;;;;5035498;28;20160;-78
2021/11/12 06:28:05;;;;;;;37.70;21.45;;;6.00;99.90;;;;;;5035320;28;20175;-78
2021/11/12 06:30:30;;;;;;;36.90;19.48;;;6.00;99.90;;;;;;5035104;28;20517;-78
2021/11/12 06:32:56;;;;;;;45.53;22.38;;;6.20;99.90;;;;;;5035033;28;20176;-78
2021/11/12 06:35:22;;;;;;;45.83;20.25;;;6.10;99.90;;;;;;5035698;28;20168;-78
2021/11/12 06:37:47;;;;;;;40.53;20.23;;;6.30;99.90;;;;;;5034743;28;20585;-78
2021/11/12 06:40:19;;;;;;;48.05;21.42;;;6.40;99.90;;;;;;5034700;28;20188;-78
2021/11/12 06:51:00;;;;;;;35.58;20.98;;;6.30;99.90;;;;;;5034133;28;20646;-78
2021/11/12 06:53:26;;;;;;;35.20;20.67;;;6.40;99.90;;;;;;5034776;28;20172;-79
2021/11/12 06:55:53;;;;;;;46.13;22.05;;;6.20;99.90;;;;;;5033154;28;20670;-78
2021/11/12 06:58:19;;;;;;;42.30;20.55;;;6.40;99.90;;;;;;5034505;28;20298;-78
2021/11/12 07:00:46;;;;;;;47.28;21.52;;;6.60;99.90;;;;;;5032705;28;20282;-78
2021/11/12 07:03:12;;;;;;;47.25;22.23;;;6.40;99.90;;;;;;5034524;28;20512;-78
2021/11/12 07:05:37;;;;;;;42.08;22.38;;;6.20;99.90;;;;;;5032557;28;20271;-78
2021/11/12 07:08:03;;;;;;;44.40;21.63;;;6.20;99.90;;;;;;5033761;28;20183;-77
2021/11/12 07:10:29;;;;;;;50.42;22.23;;;6.10;99.90;;;;;;5034413;28;20191;-78
2021/11/12 07:12:55;;;;;;;44.75;22.05;;;6.20;99.90;;;;;;5034457;28;20175;-78
2021/11/12 07:15:20;;;;;;;39.38;22.65;;;6.10;99.90;;;;;;5032542;28;20171;-78
2021/11/12 07:17:47;;;;;;;49.65;23.60;;;6.00;99.90;;;;;;5032772;28;20211;-78
2021/11/12 07:20:14;;;;;;;49.05;23.58;;;5.90;99.90;;;;;;5033861;28;20188;-78
2021/11/12 07:22:40;;;;;;;41.63;22.52;;;6.00;99.90;;;;;;5034410;28;20180;-78
2021/11/12 07:25:06;;;;;;;55.53;23.63;;;5.90;99.90;;;;;;5033935;28;20160;-77
2021/11/12 07:27:33;;;;;;;47.60;24.85;;;5.80;99.90;;;;;;5033486;28;20798;-78
2021/11/12 07:29:58;;;;;;;50.42;25.50;;;5.80;99.90;;;;;;5033330;28;20184;-78
2021/11/12 07:32:24;;;;;;;48.40;24.85;;;6.00;99.90;;;;;;5032619;28;20308;-79
2021/11/12 07:34:52;;;;;;;46.80;24.52;;;6.10;99.90;;;;;;5033613;28;20184;-78
2021/11/12 07:37:18;;;;;;;49.28;23.83;;;6.10;99.90;;;;;;5033844;28;20291;-78
2021/11/12 07:45:10;;;;;;;40.20;22.80;;;6.00;99.90;;;;;;5033618;28;20569;-77
2021/11/12 07:47:36;;;;;;;40.60;22.98;;;6.00;99.90;;;;;;5033478;28;20186;-78
2021/11/12 07:50:06;;;;;;;39.92;23.33;;;6.00;99.90;;;;;;5033400;28;20234;-78
2021/11/12 07:52:35;;;;;;;39.78;22.83;;;5.80;99.90;;;;;;5031966;28;20175;-78
2021/11/12 07:55:03;;;;;;;45.17;23.58;;;5.90;99.90;;;;;;5033211;28;20533;-78
2021/11/12 07:57:28;;;;;;;47.10;24.15;;;6.20;99.90;;;;;;5033377;28;20622;-86
2021/11/12 07:59:55;;;;;;;46.50;23.58;;;6.30;99.90;;;;;;5033047;28;20180;-78
2021/11/12 08:02:21;;;;;;;49.13;24.13;;;6.30;99.90;;;;;;5031395;28;20206;-77
2021/11/12 08:04:49;;;;;;;43.28;23.30;;;6.30;99.90;;;;;;5032090;28;20206;-77
2021/11/12 08:07:15;;;;;;;52.25;23.42;;;6.50;99.90;;;;;;5032819;28;20164;-77
2021/11/12 08:09:57;;;;;;;47.38;23.35;;;6.40;99.90;;;;;;5033287;28;20583;-76
2021/11/12 08:12:27;;;;;;;41.45;22.42;;;6.40;99.90;;;;;;5032084;28;20628;-77
2021/11/12 08:22:31;;;;;;;40.78;22.75;;;6.80;99.90;;;;;;5033742;28;20203;-80
2021/11/12 08:25:16;;;;;;;42.85;23.20;;;6.70;99.90;;;;;;5031951;28;20186;-84
2021/11/12 08:43:03;;;;;;;39.15;22.38;;;6.90;99.90;;;;;;5025715;28;20191;-86
2021/11/12 08:45:32;;;;;;;37.75;22.30;;;7.00;99.90;;;;;;5026959;28;20712;-78
2021/11/12 08:48:05;;;;;;;35.10;21.90;;;7.30;99.90;;;;;;5031009;28;20632;-78
2021/11/12 08:50:33;;;;;;;34.35;20.65;;;7.50;99.90;;;;;;5030339;28;20196;-82
2021/11/12 08:53:10;;;;;;;38.80;21.67;;;7.50;99.90;;;;;;5030689;28;20223;-91
2021/11/12 08:55:37;;;;;;;37.42;20.55;;;7.50;99.90;;;;;;5030371;28;20172;-80
2021/11/12 08:58:06;;;;;;;37.47;19.95;;;7.40;99.90;;;;;;5029022;28;20675;-80
2021/11/12 09:00:33;;;;;;;38.78;20.80;;;7.40;99.90;;;;;;5030094;28;20184;-82
2021/11/12 09:02:59;;;;;;;39.35;21.27;;;7.50;99.90;;;;;;5029134;28;20242;-80
2021/11/12 09:05:26;;;;;;;39.40;20.30;;;7.50;99.90;;;;;;5030612;28;20184;-79
2021/11/12 09:07:52;;;;;;;36.95;20.40;;;7.70;99.90;;;;;;5030650;28;20159;-80
2021/11/12 09:10:23;;;;;;;35.47;19.48;;;7.80;99.90;;;;;;5030303;28;20191;-80
2021/11/12 09:12:59;;;;;;;31.08;19.48;;;7.70;99.90;;;;;;5028997;28;20168;-78
2021/11/12 09:15:32;;;;;;;39.05;19.92;;;7.70;99.90;;;;;;5030515;28;20197;-77
2021/11/12 09:18:00;;;;;;;31.60;19.20;;;7.70;99.90;;;;;;5030970;28;20203;-78
2021/11/12 09:20:26;;;;;;;40.33;19.40;;;7.90;99.90;;;;;;5030549;28;20238;-80
2021/11/12 09:22:53;;;;;;;29.45;18.58;;;7.90;99.90;;;;;;5030536;28;20711;-77
2021/11/12 09:25:20;;;;;;;41.65;20.05;;;8.00;99.90;;;;;;5031102;28;20191;-81
2021/11/12 09:27:46;;;;;;;35.95;20.27;;;8.10;99.90;;;;;;5030893;28;20168;-78
2021/11/12 09:30:15;;;;;;;30.92;19.33;;;8.30;99.90;;;;;;5030915;28;20854;-78
2021/11/12 09:32:41;;;;;;;39.25;19.65;;;8.30;99.90;;;;;;5030977;28;20176;-77
2021/11/12 09:35:07;;;;;;;27.08;18.13;;;8.30;99.90;;;;;;5031287;28;20538;-76
2021/11/12 09:37:33;;;;;;;34.92;21.02;;;8.40;99.90;;;;;;5030581;28;20698;-78
2021/11/12 09:40:00;;;;;;;33.67;19.77;;;8.30;99.90;;;;;;5030970;28;20188;-78
2021/11/12 09:42:31;;;;;;;40.35;20.40;;;8.30;99.90;;;;;;5031066;28;20191;-78
2021/11/12 09:44:59;;;;;;;40.28;19.70;;;8.50;99.90;;;;;;5030096;28;20164;-76
2021/11/12 09:47:26;;;;;;;30.42;18.10;;;8.60;99.90;;;;;;5030685;28;20679;-79
2021/11/12 09:49:54;;;;;;;33.65;19.52;;;8.80;99.90;;;;;;5030913;28;20183;-78
2021/11/12 09:52:20;;;;;;;36.88;20.30;;;8.90;99.90;;;;;;5031343;28;20172;-78
2021/11/12 09:54:48;;;;;;;35.90;19.58;;;8.70;99.90;;;;;;5031966;28;20172;-78
2021/11/12 09:57:14;;;;;;;38.95;18.40;;;8.60;99.90;;;;;;5035381;28;20545;-79
2021/11/12 09:59:45;;;;;;;33.13;18.65;;;8.70;99.90;;;;;;5035063;28;20273;-78
2021/11/12 10:02:13;;;;;;;34.10;18.65;;;8.90;99.90;;;;;;5034625;28;20182;-78
2021/11/12 10:04:39;;;;;;;27.50;16.85;;;9.10;99.90;;;;;;5034538;28;20167;-78
2021/11/12 10:07:11;;;;;;;28.73;17.02;;;9.00;99.90;;;;;;5034176;28;20583;-78
2021/11/12 10:09:37;;;;;;;34.05;17.00;;;9.20;99.90;;;;;;5035086;28;20180;-78
2021/11/12 10:12:06;;;;;;;35.25;16.90;;;9.20;99.90;;;;;;5035290;28;20564;-78
2021/11/12 10:14:51;;;;;;;32.15;16.42;;;9.20;99.90;;;;;;5034482;28;20234;-78
2021/11/12 10:17:19;;;;;;;28.00;17.15;;;9.20;99.90;;;;;;5035192;28;20664;-77
2021/11/12 10:19:47;;;;;;;32.40;17.23;;;9.10;99.90;;;;;;5035068;28;20164;-78
2021/11/12 10:22:15;;;;;;;36.63;17.88;;;9.10;99.90;;;;;;5034772;28;20182;-78
2021/11/12 10:24:42;;;;;;;24.95;16.02;;;9.30;99.90;;;;;;5034897;28;20175;-77
2021/11/12 10:27:12;;;;;;;22.95;15.20;;;9.50;99.90;;;;;;5034344;28;20160;-77
2021/11/12 10:29:45;;;;;;;23.80;14.98;;;9.50;99.90;;;;;;5034276;28;20628;-78
2021/11/12 10:32:20;;;;;;;28.35;17.67;;;9.50;99.90;;;;;;5033235;28;20614;-77
2021/11/12 10:34:48;;;;;;;31.40;16.58;;;9.40;99.90;;;;;;5034428;28;20191;-79
2021/11/12 10:37:21;;;;;;;34.00;14.85;;;9.40;99.90;;;;;;5034045;28;20230;-77
2021/11/12 10:40:03;;;;;;;24.13;15.70;;;9.40;99.90;;;;;;5034861;28;20172;-78
2021/11/12 10:42:33;;;;;;;23.95;15.10;;;9.50;99.90;;;;;;5033573;28;20160;-78
2021/11/12 10:45:04;;;;;;;22.38;14.80;;;9.60;99.90;;;;;;5034799;28;20227;-79
2021/11/12 10:47:32;;;;;;;27.33;14.82;;;9.70;99.90;;;;;;5035268;28;20174;-88
2021/11/12 10:50:03;;;;;;;33.03;16.98;;;9.60;99.90;;;;;;5032920;28;20590;-85
2021/11/12 10:52:32;;;;;;;22.85;14.60;;;9.70;99.90;;;;;;5032859;28;20207;-79
2021/11/12 10:55:17;;;;;;;30.45;14.25;;;9.90;99.90;;;;;;5035304;28;20679;-78
2021/11/12 10:57:57;;;;;;;23.52;14.63;;;10.00;99.90;;;;;;5034763;28;20363;-81
2021/11/12 11:00:24;;;;;;;28.50;14.95;;;10.10;99.90;;;;;;5034131;28;20244;-83
2021/11/12 11:02:54;;;;;;;25.30;15.18;;;10.20;99.90;;;;;;5033686;28;20172;-78
2021/11/12 11:05:22;;;;;;;24.58;12.93;;;10.20;99.90;;;;;;5031311;28;20171;-77
2021/11/12 11:07:56;;;;;;;29.95;13.15;;;10.20;99.90;;;;;;5033162;28;20183;-77
2021/11/12 11:10:43;;;;;;;19.88;13.07;;;10.20;99.90;;;;;;5033684;28;20698;-78
2021/11/12 11:13:11;;;;;;;18.13;12.77;;;10.40;99.90;;;;;;5033801;28;20207;-78
2021/11/12 11:15:58;;;;;;;20.80;13.60;;;10.50;99.90;;;;;;5032132;28;20178;-79
2021/11/12 11:18:30;;;;;;;22.10;13.15;;;10.60;99.90;;;;;;5032970;28;20438;-79
2021/11/12 11:24:00;;;;;;;18.10;12.90;;;10.60;99.90;;;;;;5033960;28;20168;-79
2021/11/12 11:26:40;;;;;;;19.98;13.65;;;10.80;99.90;;;;;;5032339;28;20259;-78
2021/11/12 11:29:08;;;;;;;22.02;14.30;;;10.80;99.90;;;;;;5033541;28;20647;-78
2021/11/12 11:31:34;;;;;;;19.77;12.55;;;10.90;99.90;;;;;;5032970;28;20191;-78
2021/11/12 11:34:01;;;;;;;31.42;14.38;;;10.90;99.90;;;;;;5033128;28;20290;-78
2021/11/12 11:36:29;;;;;;;29.10;13.35;;;10.90;99.90;;;;;;5031922;28;20624;-78
2021/11/12 11:38:58;;;;;;;22.65;13.73;;;10.90;99.90;;;;;;5034134;28;20618;-78
2021/11/12 11:41:26;;;;;;;26.95;14.68;;;10.90;99.90;;;;;;5033448;28;20187;-78
2021/11/12 11:43:52;;;;;;;23.98;14.52;;;11.10;99.90;;;;;;5033330;28;20663;-77
2021/11/12 11:46:41;;;;;;;25.63;14.13;;;11.10;99.90;;;;;;5032720;28;20164;-78
2021/11/12 11:49:12;;;;;;;26.80;14.32;;;11.20;99.90;;;;;;5032038;28;20703;-78
2021/11/12 11:51:52;;;;;;;21.52;13.95;;;11.20;99.90;;;;;;5032118;28;20187;-77
2021/11/12 11:54:19;;;;;;;24.02;13.40;;;11.30;99.90;;;;;;5033826;28;20588;-77
2021/11/12 11:56:48;;;;;;;19.52;12.82;;;11.20;99.90;;;;;;5033274;28;20498;-77
2021/11/12 11:59:24;;;;;;;22.80;13.30;;;11.10;99.90;;;;;;5031402;28;20164;-77
2021/11/12 12:01:55;;;;;;;21.42;13.52;;;11.20;99.90;;;;;;5031764;28;20270;-77
2021/11/12 12:04:26;;;;;;;26.73;12.85;;;11.30;99.90;;;;;;5032726;28;20172;-75
2021/11/12 12:07:00;;;;;;;24.58;13.85;;;11.30;99.90;;;;;;5032455;28;20569;-78
2021/11/12 12:09:53;;;;;;;22.83;14.02;;;11.20;99.90;;;;;;5032832;28;20174;-76
2021/11/12 12:12:31;;;;;;;35.42;14.25;;;11.40;99.90;;;;;;5031622;28;20482;-76
2021/11/12 12:15:06;;;;;;;25.60;13.10;;;11.60;99.90;;;;;;5032990;28;20254;-77
2021/11/12 12:17:43;;;;;;;19.88;12.60;;;11.80;99.90;;;;;;5032406;28;20239;-76
2021/11/12 12:20:58;;;;;;;32.20;14.30;;;11.70;99.90;;;;;;5030872;28;20282;-77
2021/11/12 12:32:29;;;;;;;23.50;13.35;;;11.90;99.90;;;;;;5032276;28;20298;-79
2021/11/12 12:41:37;;;;;;;23.75;13.30;;;12.10;99.90;;;;;;4992807;28;20619;-77
2021/11/12 13:25:54;;;;;;;13.32;8.40;;;13.00;99.90;;;;;;5031522;28;20203;-79
2021/11/12 13:28:43;;;;;;;19.85;9.25;;;13.10;99.90;;;;;;5029692;28;20258;-80
2021/11/12 13:31:13;;;;;;;11.88;8.48;;;13.00;99.90;;;;;;5022390;28;20314;-77
2021/11/12 13:33:51;;;;;;;8.35;7.57;;;13.10;99.90;;;;;;5029677;28;20262;-91
2021/11/12 13:36:35;;;;;;;8.52;7.70;;;13.00;99.90;;;;;;5028321;28;20233;-77
2021/11/12 13:39:01;;;;;;;11.45;7.65;;;13.30;99.90;;;;;;5030375;28;20210;-79
2021/11/12 13:41:31;;;;;;;9.40;7.60;;;13.30;99.90;;;;;;5028918;28;20202;-76
2021/11/12 13:44:04;;;;;;;13.88;7.70;;;13.10;99.90;;;;;;5030622;28;20183;-77
2021/11/12 13:46:55;;;;;;;13.25;7.75;;;13.10;99.90;;;;;;5032425;28;20175;-84
2021/11/12 13:49:35;;;;;;;11.13;7.25;;;13.10;99.90;;;;;;5029863;28;20187;-77
2021/11/12 13:52:22;;;;;;;12.10;7.57;;;13.30;99.90;;;;;;5030326;28;20182;-85
2021/11/12 13:55:13;;;;;;;13.35;7.50;;;13.30;99.90;;;;;;5031379;28;20179;-88
2021/11/12 13:57:57;;;;;;;17.60;7.72;;;13.20;99.90;;;;;;5030592;28;20234;-81
2021/11/12 14:00:26;;;;;;;11.82;8.18;;;13.10;99.90;;;;;;5030845;28;20187;-78
2021/11/12 14:03:11;;;;;;;9.73;7.57;;;13.00;99.90;;;;;;5028396;28;20243;-78
2021/11/12 14:05:58;;;;;;;9.45;7.28;;;13.00;99.90;;;;;;5028378;28;20163;-78
2021/11/12 14:08:37;;;;;;;25.55;7.60;;;12.90;99.90;;;;;;5030320;28;20194;-80
2021/11/12 14:11:13;;;;;;;13.32;7.43;;;12.90;99.90;;;;;;5030640;28;20190;-80
2021/11/12 14:13:40;;;;;;;8.05;7.22;;;12.80;99.90;;;;;;5030687;28;20258;-78
2021/11/12 14:18:42;;;;;;;11.23;7.10;;;12.50;99.90;;;;;;5031203;28;20833;-78
2021/11/12 14:26:52;;;;;;;15.52;6.60;;;12.80;99.90;;;;;;5030130;28;20679;-78
2021/11/12 14:29:31;;;;;;;9.82;6.28;;;12.90;99.90;;;;;;5030243;28;20171;-79
2021/11/12 14:32:13;;;;;;;8.73;6.07;;;13.00;99.90;;;;;;5030625;28;20199;-78
2021/11/12 14:35:37;;;;;;;10.50;6.50;;;12.90;99.90;;;;;;5030817;28;20184;-80
2021/11/12 14:46:40;;;;;;;10.10;5.55;;;12.80;99.90;;;;;;5034177;28;20179;-78
2021/11/12 14:54:51;;;;;;;11.57;5.60;;;12.80;99.90;;;;;;5033841;28;20187;-78
2021/11/12 14:59:49;;;;;;;9.30;5.20;;;12.80;99.90;;;;;;5033952;28;20546;-78
2021/11/12 15:02:15;;;;;;;9.30;6.07;;;12.80;99.90;;;;;;5034308;28;20166;-78
2021/11/12 15:04:41;;;;;;;11.50;6.30;;;12.60;99.90;;;;;;5033107;28;20246;-78
2021/11/12 15:07:07;;;;;;;6.53;5.18;;;12.60;99.90;;;;;;5034007;28;20168;-79
2021/11/12 15:09:35;;;;;;;5.63;5.07;;;12.50;99.90;;;;;;5033595;28;20196;-78
2021/11/12 15:12:06;;;;;;;12.52;5.15;;;12.50;99.90;;;;;;5033629;28;20168;-78
2021/11/12 15:14:36;;;;;;;7.13;5.45;;;12.40;99.90;;;;;;5033582;28;20186;-83
2021/11/12 15:17:07;;;;;;;8.07;5.05;;;12.40;99.90;;;;;;5032864;28;20198;-79
2021/11/12 15:19:36;;;;;;;5.78;5.07;;;12.20;99.90;;;;;;5032893;28;20234;-78
2021/11/12 15:29:54;;;;;;;9.50;5.80;;;12.10;99.90;;;;;;5014333;28;20195;-79
2021/11/12 15:34:55;;;;;;;8.23;4.63;;;12.30;99.90;;;;;;5032058;28;20183;-78
2021/11/12 15:37:38;;;;;;;9.50;5.32;;;12.10;99.90;;;;;;5031777;28;20286;-79
2021/11/12 15:53:26;;;;;;;13.70;5.22;;;12.00;99.90;;;;;;5032550;28;20244;-80
2021/11/12 16:01:52;;;;;;;7.68;4.80;;;11.80;99.90;;;;;;5032820;28;20993;-79
2021/11/12 16:12:08;;;;;;;8.27;6.10;;;11.20;99.90;;;;;;5033364;28;20230;-79
2021/11/12 16:24:51;;;;;;;11.00;9.05;;;10.80;99.90;;;;;;5033047;28;20237;-79
2021/11/12 16:27:18;;;;;;;13.82;9.23;;;10.80;99.90;;;;;;5032138;28;20198;-79
2021/11/12 16:29:46;;;;;;;12.85;9.70;;;10.90;99.90;;;;;;5032320;28;20175;-80
2021/11/12 16:32:21;;;;;;;11.57;9.07;;;10.80;99.90;;;;;;5032091;28;20159;-79
2021/11/12 16:34:50;;;;;;;13.10;9.43;;;10.60;99.90;;;;;;5032736;28;20175;-79
2021/11/12 16:37:21;;;;;;;14.90;9.68;;;10.70;99.90;;;;;;5031331;28;20192;-79
2021/11/12 16:39:57;;;;;;;14.00;10.25;;;10.60;99.90;;;;;;5030828;28;20180;-79
2021/11/12 16:57:53;;;;;;;15.02;11.10;;;10.50;99.90;;;;;;5031813;28;20219;-79
2021/11/12 17:02:58;;;;;;;16.30;10.82;;;10.50;99.90;;;;;;5032463;28;20179;-78
2021/11/12 17:13:05;;;;;;;24.35;12.15;;;10.50;99.90;;;;;;5031791;28;20237;-78
2021/11/12 17:15:48;;;;;;;18.42;13.30;;;10.50;99.90;;;;;;5030173;28;20266;-78
2021/11/12 17:45:46;;;;;;;15.38;12.20;;;10.70;99.90;;;;;;5031187;28;20759;-78
2021/11/12 17:48:11;;;;;;;17.05;12.77;;;10.70;99.90;;;;;;5031293;28;20196;-78
2021/11/12 17:51:06;;;;;;;26.02;14.88;;;10.80;99.90;;;;;;5031586;28;20202;-79
2021/11/12 18:01:38;;;;;;;16.65;12.15;;;10.50;99.90;;;;;;5031439;28;20175;-77
2021/11/12 18:01:45;;;;;;;24.63;14.95;;;10.40;99.90;;;;;;5002186;28;20212;-79
2021/11/12 18:15:52;;;;;;;26.52;14.90;;;10.60;99.90;;;;;;5031489;28;20206;-78
2021/11/12 21:48:15;;;;;;;20.80;13.50;;;10.90;99.90;;;;;;5031840;28;20314;-80
2021/11/12 21:50:41;;;;;;;22.80;13.25;;;10.90;99.90;;;;;;5031962;28;20188;-81
2021/11/12 21:53:07;;;;;;;17.98;11.77;;;11.00;99.90;;;;;;5035703;28;20172;-79
2021/11/12 21:55:33;;;;;;;18.13;12.90;;;11.00;99.90;;;;;;5034381;28;20169;-78
2021/11/12 21:57:59;;;;;;;18.42;13.32;;;11.00;99.90;;;;;;5036091;28;20212;-78
2021/11/12 22:00:27;;;;;;;17.33;13.30;;;11.00;99.90;;;;;;5036147;28;20242;-78
2021/11/12 22:02:54;;;;;;;18.70;12.75;;;11.10;99.90;;;;;;5035854;28;20195;-78
2021/11/12 22:05:19;;;;;;;18.85;12.55;;;11.10;99.90;;;;;;5035619;28;20171;-78
2021/11/12 22:07:45;;;;;;;22.23;13.38;;;11.20;99.90;;;;;;5036280;28;20191;-81
2021/11/12 22:10:11;;;;;;;14.95;12.68;;;11.10;99.90;;;;;;5035827;28;20189;-78
2021/11/12 22:12:37;;;;;;;22.58;13.52;;;11.00;99.90;;;;;;5034415;28;20628;-79
2021/11/12 22:15:05;;;;;;;22.75;13.27;;;10.90;99.90;;;;;;5035583;28;20171;-78
2021/11/12 22:17:31;;;;;;;26.92;14.10;;;10.80;99.90;;;;;;5034042;28;20239;-81
2021/11/12 22:19:57;;;;;;;23.33;14.20;;;10.90;99.90;;;;;;5035902;28;20195;-78
2021/11/12 22:22:23;;;;;;;20.60;14.40;;;10.90;99.90;;;;;;5035598;28;20167;-79
2021/11/12 22:24:49;;;;;;;25.75;16.35;;;10.90;99.90;;;;;;5035530;28;20176;-80
2021/11/12 22:27:14;;;;;;;23.08;13.73;;;10.90;99.90;;;;;;5035424;28;20170;-80
2021/11/12 22:29:40;;;;;;;21.95;13.23;;;10.70;99.90;;;;;;5035073;28;20513;-79
2021/11/12 22:32:06;;;;;;;32.03;14.55;;;10.70;99.90;;;;;;5035264;28;20237;-82
2021/11/12 22:34:32;;;;;;;19.95;13.27;;;10.70;99.90;;;;;;5035471;28;20215;-82
2021/11/12 22:36:57;;;;;;;22.02;12.93;;;10.70;99.90;;;;;;5034978;28;20211;-79
2021/11/12 22:39:23;;;;;;;24.30;13.02;;;10.90;99.90;;;;;;5033608;28;20211;-78
2021/11/12 22:41:50;;;;;;;20.15;13.15;;;10.90;99.90;;;;;;5033398;28;20275;-79
2021/11/12 22:44:15;;;;;;;24.08;13.98;;;10.90;99.90;;;;;;5034738;28;20214;-80
2021/11/12 22:46:43;;;;;;;23.10;14.05;;;10.90;99.90;;;;;;5034996;28;20179;-82
2021/11/12 22:49:10;;;;;;;20.90;12.85;;;10.70;99.90;;;;;;5035178;28;20651;-79
2021/11/12 22:51:36;;;;;;;25.58;13.32;;;10.60;99.90;;;;;;5034732;28;20183;-79
2021/11/12 22:54:03;;;;;;;20.52;13.57;;;10.60;99.90;;;;;;5035094;28;20168;-79
2021/11/12 22:56:30;;;;;;;25.38;13.57;;;10.70;99.90;;;;;;5035043;28;20624;-79
2021/11/12 22:58:55;;;;;;;23.38;14.43;;;10.80;99.90;;;;;;5034628;28;20750;-78
2021/11/12 23:01:24;;;;;;;24.65;13.95;;;10.90;99.90;;;;;;5034224;28;20217;-79
2021/11/12 23:03:50;;;;;;;20.30;14.25;;;11.10;99.90;;;;;;5034002;28;20168;-79
2021/11/12 23:06:16;;;;;;;23.40;13.68;;;11.10;99.90;;;;;;5034621;28;20175;-79
2021/11/12 23:08:42;;;;;;;24.83;15.10;;;11.00;99.90;;;;;;5034143;28;20164;-81
2021/11/12 23:11:11;;;;;;;31.40;15.30;;;11.00;99.90;;;;;;5034532;28;20192;-78
2021/11/12 23:13:37;;;;;;;24.75;14.43;;;10.90;99.90;;;;;;5033960;28;20160;-78